Terminal Aerodrome Forecast
Issued by NWS

Home | Current Version | Previous Version | Text Only | Print | Product List | Glossary On
Versions: 1 2 3 4 5 6 7 8 9 10 11 12 13 14 15 16 17 18 19 20 21 22 23 24 25 26 27 28 29
668
FTUS41 KOKX 222331
TAFHPN
TAF
KHPN 222331Z 2300/2324 VRB02KT P6SM SCT100 BKN250
     FM230700 VRB02KT 3SM BR FEW010 BKN250
     FM230900 VRB02KT 1/2SM FG BKN009
     FM231200 VRB02KT 1/4SM FG OVC006
     FM231600 21005KT 1SM BR BKN020
     FM231900 18005KT P6SM BKN030
      AMD NOT SKED=

USA.gov is the U.S. government's official web portal to all federal, state and local government web resources and services.